sensor_id;sensor_type;location;lat;lon;timestamp;pressure;altitude;pressure_sealevel;temperature;humidity
19112;BME280;9688;51.906;8.376;2023-10-13T00:02:29;100394.13;;;17.59;100.00
19112;BME280;9688;51.906;8.376;2023-10-13T00:05:15;100402.16;;;17.59;100.00
19112;BME280;9688;51.906;8.376;2023-10-13T00:08:01;100400.38;;;17.60;100.00
19112;BME280;9688;51.906;8.376;2023-10-13T00:10:47;100389.53;;;17.61;100.00
19112;BME280;9688;51.906;8.376;2023-10-13T00:13:33;100382.38;;;17.62;100.00
19112;BME280;9688;51.906;8.376;2023-10-13T00:16:27;100385.81;;;17.64;100.00
19112;BME280;9688;51.906;8.376;2023-10-13T00:19:16;100383.13;;;17.64;100.00
19112;BME280;9688;51.906;8.376;2023-10-13T00:22:03;100384.72;;;17.67;100.00
19112;BME280;9688;51.906;8.376;2023-10-13T00:24:53;100388.25;;;17.67;100.00
19112;BME280;9688;51.906;8.376;2023-10-13T00:27:43;100385.56;;;17.67;100.00
19112;BME280;9688;51.906;8.376;2023-10-13T00:30:29;100380.97;;;17.69;100.00
19112;BME280;9688;51.906;8.376;2023-10-13T00:33:18;100387.19;;;17.70;100.00
19112;BME280;9688;51.906;8.376;2023-10-13T00:36:08;100376.47;;;17.70;100.00
19112;BME280;9688;51.906;8.376;2023-10-13T00:39:02;100381.59;;;17.73;100.00
19112;BME280;9688;51.906;8.376;2023-10-13T00:41:50;100375.31;;;17.74;100.00
19112;BME280;9688;51.906;8.376;2023-10-13T00:44:36;100372.50;;;17.75;100.00
19112;BME280;9688;51.906;8.376;2023-10-13T00:47:25;100372.41;;;17.77;100.00
19112;BME280;9688;51.906;8.376;2023-10-13T00:50:32;100365.03;;;17.80;100.00
19112;BME280;9688;51.906;8.376;2023-10-13T00:53:23;100365.66;;;17.84;100.00
19112;BME280;9688;51.906;8.376;2023-10-13T00:56:10;100355.72;;;17.86;100.00
19112;BME280;9688;51.906;8.376;2023-10-13T00:59:03;100347.59;;;17.88;100.00
19112;BME280;9688;51.906;8.376;2023-10-13T01:01:48;100346.00;;;17.85;100.00
19112;BME280;9688;51.906;8.376;2023-10-13T01:04:38;100338.94;;;17.84;100.00
19112;BME280;9688;51.906;8.376;2023-10-13T01:07:23;100349.63;;;17.84;100.00
19112;BME280;9688;51.906;8.376;2023-10-13T01:10:11;100337.22;;;17.83;100.00
19112;BME280;9688;51.906;8.376;2023-10-13T01:12:57;100333.56;;;17.84;100.00
19112;BME280;9688;51.906;8.376;2023-10-13T01:15:46;100351.34;;;17.85;100.00
19112;BME280;9688;51.906;8.376;2023-10-13T01:18:31;100340.66;;;17.85;100.00
19112;BME280;9688;51.906;8.376;2023-10-13T01:21:23;100322.66;;;17.87;100.00
19112;BME280;9688;51.906;8.376;2023-10-13T01:24:13;100328.88;;;17.88;100.00
19112;BME280;9688;51.906;8.376;2023-10-13T01:27:03;100320.84;;;17.88;100.00
19112;BME280;9688;51.906;8.376;2023-10-13T01:30:00;100326.91;;;17.90;100.00
19112;BME280;9688;51.906;8.376;2023-10-13T01:32:50;100326.06;;;17.89;100.00
19112;BME280;9688;51.906;8.376;2023-10-13T01:35:36;100320.63;;;17.91;100.00
19112;BME280;9688;51.906;8.376;2023-10-13T01:38:26;100315.16;;;17.92;100.00
19112;BME280;9688;51.906;8.376;2023-10-13T01:41:15;100319.41;;;17.95;100.00
19112;BME280;9688;51.906;8.376;2023-10-13T01:44:01;100318.47;;;17.96;100.00
19112;BME280;9688;51.906;8.376;2023-10-13T01:46:46;100323.81;;;17.96;100.00
19112;BME280;9688;51.906;8.376;2023-10-13T01:49:32;100316.50;;;17.98;100.00
19112;BME280;9688;51.906;8.376;2023-10-13T01:52:26;100306.47;;;18.01;100.00
19112;BME280;9688;51.906;8.376;2023-10-13T01:55:13;100297.56;;;18.01;100.00
19112;BME280;9688;51.906;8.376;2023-10-13T01:58:01;100294.03;;;18.00;100.00
19112;BME280;9688;51.906;8.376;2023-10-13T02:00:46;100300.97;;;18.03;100.00
19112;BME280;9688;51.906;8.376;2023-10-13T02:03:31;100298.19;;;18.04;100.00
19112;BME280;9688;51.906;8.376;2023-10-13T02:06:17;100300.88;;;18.04;100.00
19112;BME280;9688;51.906;8.376;2023-10-13T02:09:08;100292.84;;;18.04;100.00
19112;BME280;9688;51.906;8.376;2023-10-13T02:11:58;100297.31;;;18.04;100.00
19112;BME280;9688;51.906;8.376;2023-10-13T02:14:45;100288.34;;;18.05;100.00
19112;BME280;9688;51.906;8.376;2023-10-13T02:17:31;100291.97;;;18.04;100.00
19112;BME280;9688;51.906;8.376;2023-10-13T02:20:24;100290.41;;;18.01;100.00
19112;BME280;9688;51.906;8.376;2023-10-13T02:23:15;100293.09;;;18.01;100.00
19112;BME280;9688;51.906;8.376;2023-10-13T02:26:01;100282.50;;;18.00;100.00
19112;BME280;9688;51.906;8.376;2023-10-13T02:28:48;100269.22;;;17.98;100.00
19112;BME280;9688;51.906;8.376;2023-10-13T02:31:40;100268.25;;;17.99;100.00
19112;BME280;9688;51.906;8.376;2023-10-13T02:34:25;100275.31;;;18.00;100.00
19112;BME280;9688;51.906;8.376;2023-10-13T02:37:11;100270.09;;;17.99;100.00
19112;BME280;9688;51.906;8.376;2023-10-13T02:39:57;100258.66;;;17.97;100.00
19112;BME280;9688;51.906;8.376;2023-10-13T02:42:44;100256.06;;;17.95;100.00
19112;BME280;9688;51.906;8.376;2023-10-13T02:45:29;100263.25;;;17.95;100.00
19112;BME280;9688;51.906;8.376;2023-10-13T02:48:16;100246.34;;;17.94;100.00
19112;BME280;9688;51.906;8.376;2023-10-13T02:51:01;100246.34;;;17.94;100.00
19112;BME280;9688;51.906;8.376;2023-10-13T02:53:51;100238.44;;;17.93;100.00
19112;BME280;9688;51.906;8.376;2023-10-13T02:56:39;100246.34;;;17.94;100.00
19112;BME280;9688;51.906;8.376;2023-10-13T02:59:32;100243.69;;;17.94;100.00
19112;BME280;9688;51.906;8.376;2023-10-13T03:02:24;100236.63;;;17.93;100.00
19112;BME280;9688;51.906;8.376;2023-10-13T03:05:13;100232.13;;;17.94;100.00
19112;BME280;9688;51.906;8.376;2023-10-13T03:07:58;100225.06;;;17.93;100.00
19112;BME280;9688;51.906;8.376;2023-10-13T03:10:48;100226.66;;;17.95;100.00
19112;BME280;9688;51.906;8.376;2023-10-13T03:13:35;100223.03;;;17.96;100.00
19112;BME280;9688;51.906;8.376;2023-10-13T03:16:21;100222.06;;;17.97;100.00
19112;BME280;9688;51.906;8.376;2023-10-13T03:19:07;100220.97;;;18.00;100.00
19112;BME280;9688;51.906;8.376;2023-10-13T03:21:55;100219.13;;;18.00;100.00
19112;BME280;9688;51.906;8.376;2023-10-13T03:24:48;100206.75;;;17.99;100.00
19112;BME280;9688;51.906;8.376;2023-10-13T03:27:37;100212.09;;;17.99;100.00
19112;BME280;9688;51.906;8.376;2023-10-13T03:30:45;100206.75;;;17.99;100.00
19112;BME280;9688;51.906;8.376;2023-10-13T03:33:37;100202.00;;;18.03;100.00
19112;BME280;9688;51.906;8.376;2023-10-13T03:36:26;100191.31;;;18.03;100.00
19112;BME280;9688;51.906;8.376;2023-10-13T03:39:27;100191.19;;;18.04;100.00
19112;BME280;9688;51.906;8.376;2023-10-13T03:42:15;100192.16;;;18.03;100.00
19112;BME280;9688;51.906;8.376;2023-10-13T03:45:04;100190.47;;;18.02;100.00
19112;BME280;9688;51.906;8.376;2023-10-13T03:47:54;100187.78;;;18.02;100.00
19112;BME280;9688;51.906;8.376;2023-10-13T03:50:41;100186.81;;;18.03;100.00
19112;BME280;9688;51.906;8.376;2023-10-13T03:53:33;100174.28;;;18.04;100.00
19112;BME280;9688;51.906;8.376;2023-10-13T03:56:21;100171.59;;;18.04;100.00
19112;BME280;9688;51.906;8.376;2023-10-13T03:59:23;100179.53;;;18.05;100.00
19112;BME280;9688;51.906;8.376;2023-10-13T04:02:19;100172.34;;;18.06;100.00
19112;BME280;9688;51.906;8.376;2023-10-13T04:05:07;100170.50;;;18.06;100.00
19112;BME280;9688;51.906;8.376;2023-10-13T04:07:54;100170.50;;;18.06;100.00
19112;BME280;9688;51.906;8.376;2023-10-13T04:11:08;100160.69;;;18.07;100.00
19112;BME280;9688;51.906;8.376;2023-10-13T04:14:13;100154.47;;;18.06;100.00
19112;BME280;9688;51.906;8.376;2023-10-13T04:17:08;100151.78;;;18.06;100.00
19112;BME280;9688;51.906;8.376;2023-10-13T04:19:58;100149.13;;;18.06;100.00
19112;BME280;9688;51.906;8.376;2023-10-13T04:22:58;100150.00;;;18.07;100.00
19112;BME280;9688;51.906;8.376;2023-10-13T04:26:04;100145.34;;;18.09;100.00
19112;BME280;9688;51.906;8.376;2023-10-13T04:29:05;100135.53;;;18.10;100.00
19112;BME280;9688;51.906;8.376;2023-10-13T04:31:57;100127.59;;;18.08;100.00
19112;BME280;9688;51.906;8.376;2023-10-13T04:34:45;100137.22;;;18.11;100.00
19112;BME280;9688;51.906;8.376;2023-10-13T04:37:30;100131.88;;;18.11;100.00
19112;BME280;9688;51.906;8.376;2023-10-13T04:40:24;100127.38;;;18.11;100.00
19112;BME280;9688;51.906;8.376;2023-10-13T04:43:08;100122.88;;;18.12;100.00
19112;BME280;9688;51.906;8.376;2023-10-13T04:46:17;100110.47;;;18.11;100.00
19112;BME280;9688;51.906;8.376;2023-10-13T04:49:20;100108.03;;;18.08;100.00
19112;BME280;9688;51.906;8.376;2023-10-13T04:52:13;100116.06;;;18.08;100.00
19112;BME280;9688;51.906;8.376;2023-10-13T04:55:19;100115.31;;;18.05;100.00
19112;BME280;9688;51.906;8.376;2023-10-13T04:58:24;100091.50;;;18.02;100.00
19112;BME280;9688;51.906;8.376;2023-10-13T05:01:42;100090.88;;;17.99;100.00
19112;BME280;9688;51.906;8.376;2023-10-13T05:04:57;100088.22;;;17.99;100.00
19112;BME280;9688;51.906;8.376;2023-10-13T05:08:06;100091.84;;;17.98;100.00
19112;BME280;9688;51.906;8.376;2023-10-13T05:11:09;100073.34;;;17.95;100.00
19112;BME280;9688;51.906;8.376;2023-10-13T05:14:14;100071.44;;;17.97;100.00
19112;BME280;9688;51.906;8.376;2023-10-13T05:17:19;100066.81;;;17.99;100.00
19112;BME280;9688;51.906;8.376;2023-10-13T05:20:26;100057.06;;;17.98;100.00
19112;BME280;9688;51.906;8.376;2023-10-13T05:23:30;100080.06;;;18.00;100.00
19112;BME280;9688;51.906;8.376;2023-10-13T05:26:33;100058.06;;;17.97;100.00
19112;BME280;9688;51.906;8.376;2023-10-13T05:29:33;100056.22;;;17.97;100.00
19112;BME280;9688;51.906;8.376;2023-10-13T05:32:36;100048.09;;;17.99;100.00
19112;BME280;9688;51.906;8.376;2023-10-13T05:35:41;100042.00;;;17.97;100.00
19112;BME280;9688;51.906;8.376;2023-10-13T05:38:44;100026.94;;;17.96;100.00
19112;BME280;9688;51.906;8.376;2023-10-13T05:41:48;100020.59;;;17.97;100.00
19112;BME280;9688;51.906;8.376;2023-10-13T05:44:51;100014.16;;;17.99;100.00
19112;BME280;9688;51.906;8.376;2023-10-13T05:48:08;100014.91;;;18.01;100.00
19112;BME280;9688;51.906;8.376;2023-10-13T05:51:01;100000.41;;;18.04;100.00
19112;BME280;9688;51.906;8.376;2023-10-13T05:54:05;100002.13;;;18.05;100.00
19112;BME280;9688;51.906;8.376;2023-10-13T05:57:09;100005.41;;;18.09;100.00
19112;BME280;9688;51.906;8.376;2023-10-13T06:00:20;100003.72;;;18.08;100.00
19112;BME280;9688;51.906;8.376;2023-10-13T06:03:24;99998.22;;;18.09;100.00
19112;BME280;9688;51.906;8.376;2023-10-13T06:06:29;99999.09;;;18.10;100.00
19112;BME280;9688;51.906;8.376;2023-10-13T06:09:28;100001.88;;;18.08;100.00
19112;BME280;9688;51.906;8.376;2023-10-13T06:12:32;100001.88;;;18.08;100.00
19112;BME280;9688;51.906;8.376;2023-10-13T06:15:36;100007.22;;;18.08;100.00
19112;BME280;9688;51.906;8.376;2023-10-13T06:18:39;100002.97;;;18.05;100.00
19112;BME280;9688;51.906;8.376;2023-10-13T06:21:45;99997.72;;;18.04;100.00
19112;BME280;9688;51.906;8.376;2023-10-13T06:24:48;99994.09;;;18.05;100.00
19112;BME280;9688;51.906;8.376;2023-10-13T06:27:51;99994.22;;;18.03;100.00
19112;BME280;9688;51.906;8.376;2023-10-13T06:30:58;99987.03;;;18.04;100.00
19112;BME280;9688;51.906;8.376;2023-10-13T06:33:45;99986.94;;;18.05;100.00
19112;BME280;9688;51.906;8.376;2023-10-13T06:36:31;99981.47;;;18.07;100.00
19112;BME280;9688;51.906;8.376;2023-10-13T06:39:19;99976.97;;;18.08;100.00
19112;BME280;9688;51.906;8.376;2023-10-13T06:42:20;99978.53;;;18.10;100.00
19112;BME280;9688;51.906;8.376;2023-10-13T06:45:06;99976.56;;;18.12;100.00
19112;BME280;9688;51.906;8.376;2023-10-13T06:47:53;99982.56;;;18.16;100.00
19112;BME280;9688;51.906;8.376;2023-10-13T06:50:39;99988.84;;;18.15;100.00
19112;BME280;9688;51.906;8.376;2023-10-13T06:53:27;99986.91;;;18.17;100.00
19112;BME280;9688;51.906;8.376;2023-10-13T06:56:15;99980.56;;;18.18;100.00
19112;BME280;9688;51.906;8.376;2023-10-13T06:59:11;99975.97;;;18.20;100.00
19112;BME280;9688;51.906;8.376;2023-10-13T07:01:58;99982.91;;;18.22;100.00
19112;BME280;9688;51.906;8.376;2023-10-13T07:04:49;99979.97;;;18.25;100.00
19112;BME280;9688;51.906;8.376;2023-10-13T07:07:41;99986.06;;;18.27;100.00
19112;BME280;9688;51.906;8.376;2023-10-13T07:10:28;99979.59;;;18.30;100.00
19112;BME280;9688;51.906;8.376;2023-10-13T07:13:16;99971.31;;;18.33;100.00
19112;BME280;9688;51.906;8.376;2023-10-13T07:16:04;99965.59;;;18.38;100.00
19112;BME280;9688;51.906;8.376;2023-10-13T07:18:52;99958.16;;;18.41;100.00
19112;BME280;9688;51.906;8.376;2023-10-13T07:21:47;99954.13;;;18.47;100.00
19112;BME280;9688;51.906;8.376;2023-10-13T07:24:34;99956.56;;;18.50;100.00
19112;BME280;9688;51.906;8.376;2023-10-13T07:27:23;99958.03;;;18.54;100.00
19112;BME280;9688;51.906;8.376;2023-10-13T07:30:12;99964.81;;;18.58;100.00
19112;BME280;9688;51.906;8.376;2023-10-13T07:32:59;99962.72;;;18.62;100.00
19112;BME280;9688;51.906;8.376;2023-10-13T07:36:00;99953.59;;;18.64;100.00
19112;BME280;9688;51.906;8.376;2023-10-13T07:38:55;99955.63;;;18.72;100.00
19112;BME280;9688;51.906;8.376;2023-10-13T07:42:05;99944.44;;;18.78;100.00
19112;BME280;9688;51.906;8.376;2023-10-13T07:44:52;99944.91;;;18.83;100.00
19112;BME280;9688;51.906;8.376;2023-10-13T07:47:41;99950.84;;;18.87;100.00
19112;BME280;9688;51.906;8.376;2023-10-13T07:50:28;99945.97;;;18.92;100.00
19112;BME280;9688;51.906;8.376;2023-10-13T07:53:18;99941.22;;;18.96;100.00
19112;BME280;9688;51.906;8.376;2023-10-13T07:56:08;99957.63;;;19.02;100.00
19112;BME280;9688;51.906;8.376;2023-10-13T07:58:56;99953.28;;;19.11;100.00
19112;BME280;9688;51.906;8.376;2023-10-13T08:01:48;99954.34;;;19.20;100.00
19112;BME280;9688;51.906;8.376;2023-10-13T08:04:55;99947.34;;;19.28;100.00
19112;BME280;9688;51.906;8.376;2023-10-13T08:07:41;99961.78;;;19.37;100.00
19112;BME280;9688;51.906;8.376;2023-10-13T08:10:27;99949.69;;;19.43;100.00
19112;BME280;9688;51.906;8.376;2023-10-13T08:13:15;99951.13;;;19.47;100.00
19112;BME280;9688;51.906;8.376;2023-10-13T08:16:03;99947.91;;;19.53;100.00
19112;BME280;9688;51.906;8.376;2023-10-13T08:18:53;99947.25;;;19.60;100.00
19112;BME280;9688;51.906;8.376;2023-10-13T08:21:41;99947.31;;;19.70;100.00
19112;BME280;9688;51.906;8.376;2023-10-13T08:24:33;99948.22;;;19.80;100.00
19112;BME280;9688;51.906;8.376;2023-10-13T08:27:39;99945.59;;;19.90;100.00
19112;BME280;9688;51.906;8.376;2023-10-13T08:30:33;99941.34;;;19.97;100.00
19112;BME280;9688;51.906;8.376;2023-10-13T08:33:36;99945.66;;;20.10;100.00
19112;BME280;9688;51.906;8.376;2023-10-13T08:36:22;99944.09;;;20.17;100.00
19112;BME280;9688;51.906;8.376;2023-10-13T08:39:17;99934.81;;;20.21;100.00
19112;BME280;9688;51.906;8.376;2023-10-13T08:42:31;99930.44;;;20.30;100.00
19112;BME280;9688;51.906;8.376;2023-10-13T08:45:39;99928.34;;;20.43;100.00
19112;BME280;9688;51.906;8.376;2023-10-13T08:48:43;99908.03;;;20.60;100.00
19112;BME280;9688;51.906;8.376;2023-10-13T08:51:34;99909.75;;;20.70;100.00
19112;BME280;9688;51.906;8.376;2023-10-13T08:54:32;99897.28;;;20.79;100.00
19112;BME280;9688;51.906;8.376;2023-10-13T08:57:30;99898.69;;;20.93;100.00
19112;BME280;9688;51.906;8.376;2023-10-13T09:00:17;99893.56;;;21.09;100.00
19112;BME280;9688;51.906;8.376;2023-10-13T09:03:13;99890.72;;;21.21;100.00
19112;BME280;9688;51.906;8.376;2023-10-13T09:06:22;99880.91;;;21.29;100.00
19112;BME280;9688;51.906;8.376;2023-10-13T09:09:11;99868.47;;;21.38;100.00
19112;BME280;9688;51.906;8.376;2023-10-13T09:12:13;99872.81;;;21.49;100.00
19112;BME280;9688;51.906;8.376;2023-10-13T09:15:00;99858.63;;;21.56;100.00
19112;BME280;9688;51.906;8.376;2023-10-13T09:17:50;99856.28;;;21.71;100.00
19112;BME280;9688;51.906;8.376;2023-10-13T09:20:39;99860.63;;;21.82;100.00
19112;BME280;9688;51.906;8.376;2023-10-13T09:23:30;99849.97;;;21.90;100.00
19112;BME280;9688;51.906;8.376;2023-10-13T09:26:33;99832.59;;;22.02;100.00
19112;BME280;9688;51.906;8.376;2023-10-13T09:29:23;99840.44;;;22.14;100.00
19112;BME280;9688;51.906;8.376;2023-10-13T09:32:09;99833.19;;;22.24;100.00
19112;BME280;9688;51.906;8.376;2023-10-13T09:35:00;99813.50;;;22.23;100.00
19112;BME280;9688;51.906;8.376;2023-10-13T09:37:46;99806.38;;;22.22;100.00
19112;BME280;9688;51.906;8.376;2023-10-13T09:40:32;99807.81;;;22.17;100.00
19112;BME280;9688;51.906;8.376;2023-10-13T09:43:23;99801.78;;;22.15;100.00
19112;BME280;9688;51.906;8.376;2023-10-13T09:46:10;99792.69;;;22.16;100.00
19112;BME280;9688;51.906;8.376;2023-10-13T09:49:05;99806.13;;;22.16;100.00
19112;BME280;9688;51.906;8.376;2023-10-13T09:52:01;99793.41;;;22.18;100.00
19112;BME280;9688;51.906;8.376;2023-10-13T09:55:00;99785.72;;;22.23;100.00
19112;BME280;9688;51.906;8.376;2023-10-13T09:57:52;99786.25;;;22.26;100.00
19112;BME280;9688;51.906;8.376;2023-10-13T10:00:45;99790.31;;;22.31;100.00
19112;BME280;9688;51.906;8.376;2023-10-13T10:03:52;99786.72;;;22.40;100.00
19112;BME280;9688;51.906;8.376;2023-10-13T10:06:52;99778.06;;;22.54;100.00
19112;BME280;9688;51.906;8.376;2023-10-13T10:09:39;99783.56;;;22.70;100.00
19112;BME280;9688;51.906;8.376;2023-10-13T10:12:31;99772.06;;;22.86;100.00
19112;BME280;9688;51.906;8.376;2023-10-13T10:15:27;99783.81;;;23.03;100.00
19112;BME280;9688;51.906;8.376;2023-10-13T10:18:18;99777.31;;;23.22;100.00
19112;BME280;9688;51.906;8.376;2023-10-13T10:21:08;99794.59;;;23.37;100.00
19112;BME280;9688;51.906;8.376;2023-10-13T10:23:55;99758.34;;;23.40;100.00
19112;BME280;9688;51.906;8.376;2023-10-13T10:26:50;99756.34;;;23.42;100.00
19112;BME280;9688;51.906;8.376;2023-10-13T10:29:37;99750.09;;;23.50;100.00
19112;BME280;9688;51.906;8.376;2023-10-13T10:32:32;99753.84;;;23.57;100.00
19112;BME280;9688;51.906;8.376;2023-10-13T10:35:23;99752.00;;;23.66;100.00
19112;BME280;9688;51.906;8.376;2023-10-13T10:38:16;99772.81;;;23.73;99.34
19112;BME280;9688;51.906;8.376;2023-10-13T10:41:09;99754.63;;;23.75;99.20
19112;BME280;9688;51.906;8.376;2023-10-13T10:43:58;99748.03;;;23.78;98.26
19112;BME280;9688;51.906;8.376;2023-10-13T10:46:47;99760.34;;;23.80;97.84
19112;BME280;9688;51.906;8.376;2023-10-13T10:49:41;99742.31;;;23.89;97.08
19112;BME280;9688;51.906;8.376;2023-10-13T10:52:28;99742.84;;;24.09;95.81
19112;BME280;9688;51.906;8.376;2023-10-13T10:55:22;99718.19;;;24.29;94.14
19112;BME280;9688;51.906;8.376;2023-10-13T10:58:12;99726.13;;;24.46;93.47
19112;BME280;9688;51.906;8.376;2023-10-13T11:01:12;99727.97;;;24.62;93.05
19112;BME280;9688;51.906;8.376;2023-10-13T11:04:05;99704.97;;;24.66;91.79
19112;BME280;9688;51.906;8.376;2023-10-13T11:06:58;99708.72;;;24.65;91.21
19112;BME280;9688;51.906;8.376;2023-10-13T11:09:46;99702.25;;;24.75;90.44
19112;BME280;9688;51.906;8.376;2023-10-13T11:12:33;99701.03;;;24.85;89.61
19112;BME280;9688;51.906;8.376;2023-10-13T11:15:19;99696.28;;;24.96;88.78
19112;BME280;9688;51.906;8.376;2023-10-13T11:18:08;99701.00;;;25.02;88.32
19112;BME280;9688;51.906;8.376;2023-10-13T11:20:58;99693.06;;;25.00;87.76
19112;BME280;9688;51.906;8.376;2023-10-13T11:23:55;99682.41;;;24.99;87.18
19112;BME280;9688;51.906;8.376;2023-10-13T11:26:41;99685.13;;;24.99;87.00
19112;BME280;9688;51.906;8.376;2023-10-13T11:29:34;99674.31;;;24.99;86.61
19112;BME280;9688;51.906;8.376;2023-10-13T11:32:23;99684.78;;;24.93;86.14
19112;BME280;9688;51.906;8.376;2023-10-13T11:35:13;99674.81;;;24.94;85.59
19112;BME280;9688;51.906;8.376;2023-10-13T11:38:09;99675.84;;;24.93;85.02
19112;BME280;9688;51.906;8.376;2023-10-13T11:40:59;99659.31;;;24.88;84.80
19112;BME280;9688;51.906;8.376;2023-10-13T11:43:56;99666.66;;;25.02;84.62
19112;BME280;9688;51.906;8.376;2023-10-13T11:46:59;99655.16;;;25.17;83.76
19112;BME280;9688;51.906;8.376;2023-10-13T11:50:16;99664.91;;;25.26;83.74
19112;BME280;9688;51.906;8.376;2023-10-13T11:53:16;99650.88;;;25.30;83.22
19112;BME280;9688;51.906;8.376;2023-10-13T11:56:02;99648.09;;;25.39;82.96
19112;BME280;9688;51.906;8.376;2023-10-13T11:58:53;99650.00;;;25.30;82.77
19112;BME280;9688;51.906;8.376;2023-10-13T12:01:44;99645.97;;;25.26;83.00
19112;BME280;9688;51.906;8.376;2023-10-13T12:04:52;99641.59;;;25.25;82.81
19112;BME280;9688;51.906;8.376;2023-10-13T12:07:43;99626.56;;;25.14;82.85
19112;BME280;9688;51.906;8.376;2023-10-13T12:10:33;99633.53;;;25.08;83.17
19112;BME280;9688;51.906;8.376;2023-10-13T12:13:23;99624.91;;;25.05;83.38
19112;BME280;9688;51.906;8.376;2023-10-13T12:16:09;99623.22;;;25.04;83.55
19112;BME280;9688;51.906;8.376;2023-10-13T12:18:57;99612.09;;;24.99;83.72
19112;BME280;9688;51.906;8.376;2023-10-13T12:21:47;99606.84;;;25.05;83.60
19112;BME280;9688;51.906;8.376;2023-10-13T12:24:36;99595.47;;;25.18;83.34
19112;BME280;9688;51.906;8.376;2023-10-13T12:27:30;99598.38;;;25.40;82.68
19112;BME280;9688;51.906;8.376;2023-10-13T12:30:31;99590.13;;;25.56;82.25
19112;BME280;9688;51.906;8.376;2023-10-13T12:33:35;99576.47;;;25.72;81.98
19112;BME280;9688;51.906;8.376;2023-10-13T12:36:25;99575.84;;;25.85;81.43
19112;BME280;9688;51.906;8.376;2023-10-13T12:39:27;99584.84;;;25.86;81.23
19112;BME280;9688;51.906;8.376;2023-10-13T12:42:30;99577.19;;;25.89;81.21
19112;BME280;9688;51.906;8.376;2023-10-13T12:45:38;99579.06;;;25.89;80.97
19112;BME280;9688;51.906;8.376;2023-10-13T12:48:42;99579.41;;;25.86;80.62
19112;BME280;9688;51.906;8.376;2023-10-13T12:52:00;99572.75;;;25.88;80.14
19112;BME280;9688;51.906;8.376;2023-10-13T12:54:49;99569.16;;;25.96;79.65
19112;BME280;9688;51.906;8.376;2023-10-13T12:57:43;99568.22;;;26.03;79.02
19112;BME280;9688;51.906;8.376;2023-10-13T13:00:28;99574.78;;;26.09;78.75
19112;BME280;9688;51.906;8.376;2023-10-13T13:03:17;99568.59;;;26.15;78.31
19112;BME280;9688;51.906;8.376;2023-10-13T13:06:04;99558.97;;;26.13;78.21
19112;BME280;9688;51.906;8.376;2023-10-13T13:08:52;99563.38;;;26.14;77.64
19112;BME280;9688;51.906;8.376;2023-10-13T13:11:40;99564.97;;;26.23;77.04
19112;BME280;9688;51.906;8.376;2023-10-13T13:14:26;99555.81;;;26.24;76.89
19112;BME280;9688;51.906;8.376;2023-10-13T13:17:13;99555.16;;;26.22;76.33
19112;BME280;9688;51.906;8.376;2023-10-13T13:20:00;99542.34;;;26.16;76.19
19112;BME280;9688;51.906;8.376;2023-10-13T13:22:55;99541.59;;;26.07;76.08
19112;BME280;9688;51.906;8.376;2023-10-13T13:25:47;99537.09;;;25.99;76.30
19112;BME280;9688;51.906;8.376;2023-10-13T13:28:34;99534.50;;;25.91;75.71
19112;BME280;9688;51.906;8.376;2023-10-13T13:31:22;99529.72;;;25.93;75.50
19112;BME280;9688;51.906;8.376;2023-10-13T13:34:10;99532.19;;;26.03;75.04
19112;BME280;9688;51.906;8.376;2023-10-13T13:36:57;99528.34;;;26.12;74.24
19112;BME280;9688;51.906;8.376;2023-10-13T13:39:45;99531.34;;;26.17;73.97
19112;BME280;9688;51.906;8.376;2023-10-13T13:42:32;99536.84;;;26.24;73.78
19112;BME280;9688;51.906;8.376;2023-10-13T13:45:23;99523.78;;;26.28;72.65
19112;BME280;9688;51.906;8.376;2023-10-13T13:48:13;99522.91;;;26.27;72.76
19112;BME280;9688;51.906;8.376;2023-10-13T13:51:03;99522.91;;;26.27;72.25
19112;BME280;9688;51.906;8.376;2023-10-13T13:53:56;99532.38;;;26.31;72.36
19112;BME280;9688;51.906;8.376;2023-10-13T13:56:43;99518.16;;;26.29;72.00
19112;BME280;9688;51.906;8.376;2023-10-13T13:59:29;99525.53;;;26.20;72.11
19112;BME280;9688;51.906;8.376;2023-10-13T14:02:19;99509.00;;;26.15;71.60
19112;BME280;9688;51.906;8.376;2023-10-13T14:05:09;99516.28;;;26.15;71.60
19112;BME280;9688;51.906;8.376;2023-10-13T14:08:01;99520.41;;;26.11;71.67
19112;BME280;9688;51.906;8.376;2023-10-13T14:10:56;99506.09;;;26.02;71.63
19112;BME280;9688;51.906;8.376;2023-10-13T14:14:34;99499.47;;;25.90;72.63
19112;BME280;9688;51.906;8.376;2023-10-13T14:17:21;99496.81;;;25.81;72.60
19112;BME280;9688;51.906;8.376;2023-10-13T14:20:16;99509.13;;;25.69;72.36
19112;BME280;9688;51.906;8.376;2023-10-13T14:23:04;99500.06;;;25.62;72.52
19112;BME280;9688;51.906;8.376;2023-10-13T14:25:51;99500.97;;;25.54;71.92
19112;BME280;9688;51.906;8.376;2023-10-13T14:28:40;99499.47;;;25.52;71.92
19112;BME280;9688;51.906;8.376;2023-10-13T14:31:36;99499.38;;;25.45;72.19
19112;BME280;9688;51.906;8.376;2023-10-13T14:34:23;99496.75;;;25.37;71.58
19112;BME280;9688;51.906;8.376;2023-10-13T14:37:11;99498.97;;;25.33;71.48
19112;BME280;9688;51.906;8.376;2023-10-13T14:39:58;99505.59;;;25.31;71.42
19112;BME280;9688;51.906;8.376;2023-10-13T14:42:44;99513.22;;;25.27;71.28
19112;BME280;9688;51.906;8.376;2023-10-13T14:45:31;99508.16;;;25.24;71.26
19112;BME280;9688;51.906;8.376;2023-10-13T14:48:18;99496.69;;;25.22;71.04
19112;BME280;9688;51.906;8.376;2023-10-13T14:51:09;99498.91;;;25.19;71.12
19112;BME280;9688;51.906;8.376;2023-10-13T14:53:58;99507.88;;;25.19;70.81
19112;BME280;9688;51.906;8.376;2023-10-13T14:56:44;99497.91;;;25.20;70.85
19112;BME280;9688;51.906;8.376;2023-10-13T14:59:30;99503.69;;;25.17;70.51
19112;BME280;9688;51.906;8.376;2023-10-13T15:02:23;99511.47;;;25.11;71.03
19112;BME280;9688;51.906;8.376;2023-10-13T15:05:09;99498.47;;;25.07;70.97
19112;BME280;9688;51.906;8.376;2023-10-13T15:08:02;99505.28;;;25.03;71.01
19112;BME280;9688;51.906;8.376;2023-10-13T15:10:51;99504.75;;;24.99;71.30
19112;BME280;9688;51.906;8.376;2023-10-13T15:13:37;99505.69;;;24.91;71.39
19112;BME280;9688;51.906;8.376;2023-10-13T15:16:23;99501.84;;;24.86;71.54